Smyrna, Delaware
Current Conditions -  °F | °C
As of 3:58 PM on Sunday 21 Dec 2014 (Local Time) from KDOV Reporting Station
Clear Clear  
Wind Chill: 35°   Ceiling: Unl
Heat Index: 39°   Visibility: 10mi
Dew Point: 25°   Wind: 6mph
Humidity: 56%   Direction: 350°N
Pressure: 30.27"   Gusts: NA
Location:  39.3°N, 75.61°W
Report Text: KDOV 212058Z AUTO 35005KT 10SM CLR 04/M04 A3027 RMK AO2 SLP254 T00401041 55005
Loading
Personal Weather Stations






























Interactive Weather Map New forecast layout! Learn more

10-Day Weather Forecast

Advertisements
Track Severe Weather on mobile